createdAt,value
2019-01-24T00:01:58.493Z,15.93
2019-01-24T00:05:59.589Z,17.87
2019-01-24T00:10:03.527Z,17.10
2019-01-24T00:14:05.640Z,18.33
2019-01-24T00:18:06.687Z,19.03
2019-01-24T00:22:08.000Z,20.17
2019-01-24T00:26:09.412Z,20.03
2019-01-24T00:30:11.795Z,16.63
2019-01-24T00:34:12.764Z,19.67
2019-01-24T00:38:13.982Z,20.07
2019-01-24T00:42:15.451Z,17.53
2019-01-24T00:46:16.914Z,17.23
2019-01-24T00:50:18.053Z,17.10
2019-01-24T00:54:19.203Z,12.67
2019-01-24T00:58:20.901Z,10.47
2019-01-24T01:02:22.079Z,8.90
2019-01-24T01:06:23.063Z,13.67
2019-01-24T01:10:24.095Z,9.73
2019-01-24T01:14:25.612Z,10.83
2019-01-24T01:18:27.177Z,9.27
2019-01-24T01:22:28.846Z,8.83
2019-01-24T01:26:30.142Z,8.17
2019-01-24T01:30:32.092Z,7.70
2019-01-24T01:34:36.468Z,9.33
2019-01-24T01:38:37.609Z,7.43
2019-01-24T01:42:38.671Z,8.47
2019-01-24T01:46:40.155Z,9.30
2019-01-24T01:50:42.259Z,8.50
2019-01-24T01:54:43.193Z,6.70
2019-01-24T01:58:44.787Z,9.30
2019-01-24T02:02:46.335Z,7.93
2019-01-24T02:06:47.653Z,7.93
2019-01-24T02:10:49.421Z,6.13
2019-01-24T02:14:51.845Z,7.00
2019-01-24T02:18:53.290Z,7.27
2019-01-24T02:22:54.378Z,5.67
2019-01-24T02:26:56.037Z,4.47
2019-01-24T02:30:57.823Z,5.63
2019-01-24T02:34:59.025Z,3.17
2019-01-24T02:39:00.240Z,2.93
2019-01-24T02:43:02.962Z,3.87
2019-01-24T02:47:04.243Z,3.90
2019-01-24T02:51:05.355Z,3.43
2019-01-24T02:55:07.211Z,4.90
2019-01-24T02:59:08.340Z,4.87
2019-01-24T03:03:09.516Z,4.10
2019-01-24T03:07:10.922Z,5.20
2019-01-24T03:11:12.505Z,5.33
2019-01-24T03:15:15.482Z,3.37
2019-01-24T03:19:16.762Z,4.17
2019-01-24T03:23:18.691Z,3.57
2019-01-24T03:27:20.521Z,2.13
2019-01-24T03:31:22.669Z,2.03
2019-01-24T03:35:26.274Z,5.10
2019-01-24T03:39:27.750Z,2.27
2019-01-24T03:43:29.044Z,2.13
2019-01-24T03:47:30.610Z,1.73
2019-01-24T03:51:32.178Z,1.57
2019-01-24T03:55:33.459Z,2.77
2019-01-24T03:59:34.807Z,4.30
2019-01-24T04:03:36.400Z,3.23
2019-01-24T04:07:39.161Z,2.03
2019-01-24T04:11:42.405Z,2.20
2019-01-24T04:15:43.693Z,2.87
2019-01-24T04:19:45.789Z,3.13
2019-01-24T04:23:46.961Z,2.97
2019-01-24T04:27:47.939Z,1.23
2019-01-24T04:31:49.310Z,2.20
2019-01-24T04:35:50.867Z,1.90
2019-01-24T04:39:52.919Z,2.80
2019-01-24T04:43:54.520Z,2.43
2019-01-24T04:47:58.093Z,2.73
2019-01-24T04:51:59.953Z,3.37
2019-01-24T04:56:01.338Z,2.23
2019-01-24T05:00:03.228Z,5.60
2019-01-24T05:04:04.874Z,2.87
2019-01-24T05:08:06.388Z,4.50
2019-01-24T05:12:08.902Z,6.87
2019-01-24T05:16:10.196Z,2.73
2019-01-24T05:20:15.422Z,4.07
2019-01-24T05:24:16.921Z,2.90
2019-01-24T05:28:18.595Z,3.33
2019-01-24T05:32:25.686Z,4.47
2019-01-24T05:36:27.033Z,2.80
2019-01-24T05:40:28.412Z,2.53
2019-01-24T05:44:29.652Z,3.30
2019-01-24T05:48:30.847Z,2.83
2019-01-24T05:52:32.289Z,4.63
2019-01-24T05:56:34.058Z,2.90
2019-01-24T06:00:41.179Z,3.50
2019-01-24T06:04:42.489Z,2.73
2019-01-24T06:08:44.763Z,3.00
2019-01-24T06:12:46.118Z,2.80
2019-01-24T06:16:47.383Z,1.23
2019-01-24T06:20:49.302Z,3.83
2019-01-24T06:24:50.889Z,2.83
2019-01-24T06:28:52.275Z,3.33
2019-01-24T06:32:53.935Z,2.97
2019-01-24T06:36:55.982Z,4.90
2019-01-24T06:40:57.200Z,2.83
2019-01-24T06:44:58.446Z,4.67
2019-01-24T06:48:59.654Z,4.17
2019-01-24T06:53:00.762Z,3.60
2019-01-24T06:57:01.816Z,2.47
2019-01-24T07:01:02.968Z,3.00
2019-01-24T07:05:04.181Z,1.90
2019-01-24T07:09:08.038Z,3.33
2019-01-24T07:13:10.305Z,3.23
2019-01-24T07:17:13.449Z,2.43
2019-01-24T07:21:14.849Z,4.87
2019-01-24T07:25:18.775Z,2.47
2019-01-24T07:29:20.062Z,2.00
2019-01-24T07:33:21.473Z,1.43
2019-01-24T07:37:22.827Z,0.17
2019-01-24T07:41:24.694Z,6.47
2019-01-24T07:45:32.193Z,2.90
2019-01-24T07:49:33.876Z,3.60
2019-01-24T07:53:35.347Z,2.50
2019-01-24T07:57:36.524Z,6.27
2019-01-24T08:01:37.871Z,2.67
2019-01-24T08:05:39.283Z,2.90
2019-01-24T08:09:40.998Z,3.67
2019-01-24T08:13:42.179Z,2.47
2019-01-24T08:17:43.472Z,2.37
2019-01-24T08:21:46.450Z,1.63
2019-01-24T08:25:47.702Z,3.57
2019-01-24T08:29:49.055Z,4.70
2019-01-24T08:33:50.896Z,3.93
2019-01-24T08:37:52.095Z,1.57
2019-01-24T08:41:53.864Z,3.53
2019-01-24T08:45:55.003Z,2.00
2019-01-24T08:49:57.053Z,2.50
2019-01-24T08:53:58.254Z,1.60
2019-01-24T08:57:59.479Z,5.60
2019-01-24T09:02:00.766Z,3.30
2019-01-24T09:06:02.221Z,3.43
2019-01-24T09:10:03.481Z,3.80
2019-01-24T09:14:04.652Z,4.23
2019-01-24T09:18:07.690Z,2.80
2019-01-24T09:22:08.974Z,1.20
2019-01-24T09:26:11.558Z,3.60
2019-01-24T09:30:16.034Z,1.20
2019-01-24T09:34:17.190Z,5.10
2019-01-24T09:38:18.410Z,3.87
2019-01-24T09:42:19.577Z,2.07
2019-01-24T09:46:20.662Z,3.50
2019-01-24T09:50:23.552Z,5.30
2019-01-24T09:54:24.788Z,5.37
2019-01-24T09:58:26.038Z,2.23
2019-01-24T10:02:27.254Z,2.97
2019-01-24T10:06:28.585Z,2.77
2019-01-24T10:10:29.802Z,3.03
2019-01-24T10:14:31.051Z,1.73
2019-01-24T10:18:32.366Z,3.10
2019-01-24T10:22:33.793Z,5.10
2019-01-24T10:26:35.087Z,3.60
2019-01-24T10:30:42.376Z,4.93
2019-01-24T10:34:39.445Z,3.77
2019-01-24T10:38:40.584Z,2.77
2019-01-24T10:42:41.912Z,4.97
2019-01-24T10:46:43.161Z,4.20
2019-01-24T10:50:44.604Z,2.93
2019-01-24T10:54:45.814Z,3.77
2019-01-24T10:58:47.010Z,3.57
2019-01-24T11:02:48.334Z,3.40
2019-01-24T11:06:50.090Z,2.30
2019-01-24T11:10:51.675Z,5.87
2019-01-24T11:14:53.081Z,2.00
2019-01-24T11:18:54.278Z,4.20
2019-01-24T11:22:55.534Z,4.20
2019-01-24T11:26:56.848Z,4.10
2019-01-24T11:30:59.219Z,1.83
2019-01-24T11:35:01.725Z,4.10
2019-01-24T11:39:03.731Z,2.73
2019-01-24T11:43:05.220Z,1.67
2019-01-24T11:47:06.669Z,1.83
2019-01-24T11:51:07.827Z,4.30
2019-01-24T11:55:09.974Z,2.83
2019-01-24T11:59:11.716Z,5.70
2019-01-24T12:03:13.841Z,3.33
2019-01-24T12:07:15.035Z,1.80
2019-01-24T12:11:16.096Z,2.63
2019-01-24T12:15:19.080Z,1.57
2019-01-24T12:19:20.389Z,1.30
2019-01-24T12:23:21.650Z,2.37
2019-01-24T12:27:23.014Z,3.00
2019-01-24T12:31:24.264Z,7.73
2019-01-24T12:35:25.302Z,2.43
2019-01-24T12:39:26.457Z,2.87
2019-01-24T12:43:27.524Z,5.60
2019-01-24T12:47:28.533Z,2.30
2019-01-24T12:51:29.571Z,3.27
2019-01-24T12:55:30.531Z,2.87
2019-01-24T12:59:31.598Z,2.00
2019-01-24T13:03:32.568Z,2.50
2019-01-24T13:07:33.597Z,8.30
2019-01-24T13:11:34.594Z,7.77
2019-01-24T13:15:35.759Z,1.93
2019-01-24T13:19:36.760Z,2.10
2019-01-24T13:23:37.811Z,3.07
2019-01-24T13:27:38.807Z,1.97
2019-01-24T13:31:39.874Z,5.33
2019-01-24T13:35:40.856Z,3.83
2019-01-24T13:39:42.980Z,3.93
2019-01-24T13:43:44.253Z,2.57
2019-01-24T13:47:45.358Z,9.87
2019-01-24T13:51:46.377Z,10.47
2019-01-24T13:55:47.392Z,3.07
2019-01-24T13:59:48.410Z,3.30
2019-01-24T14:04:05.622Z,5.10
2019-01-24T14:08:06.669Z,2.33
2019-01-24T14:12:07.751Z,7.10
2019-01-24T14:16:08.813Z,2.90
2019-01-24T14:20:12.728Z,1.63
2019-01-24T14:24:13.673Z,5.30
2019-01-24T14:28:14.740Z,8.83
2019-01-24T14:32:15.749Z,5.13
2019-01-24T14:36:16.809Z,4.77
2019-01-24T14:40:18.847Z,4.67
2019-01-24T14:44:19.853Z,5.50
2019-01-24T14:48:21.320Z,5.00
2019-01-24T14:52:22.727Z,7.40
2019-01-24T14:56:23.700Z,5.93
2019-01-24T15:00:27.733Z,29.90
2019-01-24T15:04:28.838Z,12.47
2019-01-24T15:08:30.168Z,6.17
2019-01-24T15:12:31.443Z,6.77
2019-01-24T15:16:32.747Z,9.93
2019-01-24T15:20:34.003Z,7.20
2019-01-24T15:24:35.348Z,5.07
2019-01-24T15:28:36.470Z,6.40
2019-01-24T15:32:37.829Z,11.27
2019-01-24T15:36:40.749Z,6.20
2019-01-24T15:40:42.091Z,2.50
2019-01-24T15:44:43.367Z,4.47
2019-01-24T15:48:44.745Z,4.07
2019-01-24T15:52:46.490Z,4.60
2019-01-24T15:56:47.907Z,7.53
2019-01-24T16:00:48.884Z,3.47
2019-01-24T16:04:49.983Z,4.03
2019-01-24T16:08:50.977Z,9.23
2019-01-24T16:12:52.098Z,6.13
2019-01-24T16:16:53.121Z,6.77
2019-01-24T16:20:54.230Z,6.47
2019-01-24T16:24:55.256Z,8.30
2019-01-24T16:28:56.330Z,3.73
2019-01-24T16:32:57.414Z,7.00
2019-01-24T16:36:58.509Z,6.43
2019-01-24T16:40:59.466Z,10.43
2019-01-24T16:45:00.546Z,6.47
2019-01-24T16:49:01.541Z,5.40
2019-01-24T16:53:02.555Z,6.20
2019-01-24T16:57:04.833Z,4.53
2019-01-24T17:01:21.326Z,4.73
2019-01-24T17:05:22.450Z,4.60
2019-01-24T17:09:26.880Z,7.17
2019-01-24T17:13:28.300Z,4.87
2019-01-24T17:17:30.411Z,9.13
2019-01-24T17:21:31.922Z,5.90
2019-01-24T17:25:33.823Z,11.87
2019-01-24T17:29:35.790Z,8.30
2019-01-24T17:33:37.780Z,43.97
2019-01-24T17:37:40.316Z,15.43
2019-01-24T17:41:41.380Z,7.73
2019-01-24T17:45:42.414Z,7.97
2019-01-24T17:49:43.955Z,4.97
2019-01-24T17:53:45.309Z,4.40
2019-01-24T17:57:46.405Z,7.27
2019-01-24T18:01:48.098Z,7.77
2019-01-24T18:05:49.211Z,4.90
2019-01-24T18:09:50.225Z,9.73
2019-01-24T18:13:51.330Z,4.20
2019-01-24T18:17:52.345Z,8.20
2019-01-24T18:21:53.471Z,5.63
2019-01-24T18:25:54.498Z,8.23
2019-01-24T18:29:55.612Z,7.57
2019-01-24T18:33:56.673Z,9.93
2019-01-24T18:37:58.370Z,7.90
2019-01-24T18:42:12.793Z,5.17
2019-01-24T18:46:14.278Z,5.43
2019-01-24T18:50:18.722Z,7.33
2019-01-24T18:54:20.885Z,8.03
2019-01-24T18:58:22.450Z,5.53
2019-01-24T19:02:23.777Z,6.17
2019-01-24T19:06:24.993Z,1.83
2019-01-24T19:10:26.338Z,5.90
2019-01-24T19:14:27.938Z,5.97
2019-01-24T19:18:29.303Z,5.00
2019-01-24T19:22:32.841Z,5.07
2019-01-24T19:26:34.199Z,7.37
2019-01-24T19:30:35.287Z,8.63
2019-01-24T19:34:36.981Z,6.33
2019-01-24T19:38:38.021Z,5.90
2019-01-24T19:42:39.734Z,9.23
2019-01-24T19:46:41.367Z,2.60
2019-01-24T19:50:42.442Z,6.03
2019-01-24T19:54:44.752Z,7.00
2019-01-24T19:58:46.386Z,8.80
2019-01-24T20:02:47.461Z,9.83
2019-01-24T20:06:49.293Z,6.40
2019-01-24T20:10:50.484Z,8.27
2019-01-24T20:14:51.486Z,5.50
2019-01-24T20:18:52.485Z,7.10
2019-01-24T20:22:54.105Z,5.80
2019-01-24T20:26:55.130Z,4.97
2019-01-24T20:30:56.354Z,7.30
2019-01-24T20:34:57.358Z,8.17
2019-01-24T20:38:58.479Z,6.30
2019-01-24T20:43:00.015Z,6.57
2019-01-24T20:47:01.114Z,6.03
2019-01-24T20:51:02.318Z,7.30
2019-01-24T20:55:04.429Z,10.27
2019-01-24T20:59:06.632Z,5.63
2019-01-24T21:03:08.972Z,6.90
2019-01-24T21:07:10.559Z,6.20
2019-01-24T21:11:12.679Z,5.70
2019-01-24T21:15:15.169Z,8.53
2019-01-24T21:19:16.211Z,7.33
2019-01-24T21:23:17.398Z,9.13
2019-01-24T21:27:18.919Z,8.37
2019-01-24T21:31:19.899Z,8.10
2019-01-24T21:35:21.763Z,6.27
2019-01-24T21:39:22.945Z,6.80
2019-01-24T21:43:24.675Z,10.33
2019-01-24T21:47:26.202Z,5.70
2019-01-24T21:51:27.525Z,5.93
2019-01-24T21:55:29.393Z,9.23
2019-01-24T21:59:30.701Z,5.67
2019-01-24T22:03:31.886Z,5.30
2019-01-24T22:07:33.842Z,10.60
2019-01-24T22:11:35.019Z,6.23
2019-01-24T22:15:36.052Z,7.00
2019-01-24T22:19:37.459Z,6.70
2019-01-24T22:23:38.495Z,5.70
2019-01-24T22:27:39.443Z,16.57
2019-01-24T22:31:40.458Z,8.80
2019-01-24T22:35:41.439Z,6.40
2019-01-24T22:39:43.060Z,4.93
2019-01-24T22:43:44.592Z,6.73
2019-01-24T22:47:45.778Z,8.80
2019-01-24T22:51:46.771Z,8.07
2019-01-24T22:55:48.328Z,6.13
2019-01-24T22:59:49.287Z,6.87
2019-01-24T23:04:04.702Z,6.90
2019-01-24T23:08:07.422Z,6.10
2019-01-24T23:12:09.794Z,5.37
2019-01-24T23:16:11.203Z,7.63
2019-01-24T23:20:12.266Z,5.97
2019-01-24T23:24:14.175Z,8.07
2019-01-24T23:28:15.441Z,7.23
2019-01-24T23:32:17.113Z,7.73
2019-01-24T23:36:18.810Z,7.67
2019-01-24T23:40:21.256Z,5.00
2019-01-24T23:44:22.806Z,7.37
2019-01-24T23:48:24.199Z,5.80
2019-01-24T23:52:25.275Z,12.00
2019-01-24T23:56:26.785Z,6.47
